Terminal Aerodrome Forecast
Issued by NWS Pittsburgh, PA

Current Version | Previous Version | Graphics & Text | Print | Product List | Glossary On
Versions: 1 2 3 4 5 6 7 8 9 10 11 12 13 14 15 16 17 18 19 20 21 22 23 24 25 26 27 28
000
FTUS41 KPBZ 100900 AAA
TAFPIT
TAF AMD
KPIT 100912Z 1009/1112 31003KT P6SM SCT250
     FM101030 00000KT 5SM BR SCT250
     FM101330 02004KT P6SM SCT250
     FM101600 36004KT P6SM SCT040
     FM110900 35003KT 4SM BR FEW250=

USA.gov is the U.S. government's official web portal to all federal, state and local government web resources and services.